Latest Weather Observations for Macquarie Island

IDT60801

Issued at 7:02 pm EDT Thursday 23 March 2017 (issued every 30 minutes, with the page automatically refreshed every 10 minutes)

About weather observations | Map of weather stations | Latest weather observations for TAS | Other Formats
Station Details ID: 300004 Name: MACQUARIE ISLAND Lat: -54.50 Lon: 158.94 Height: 6.0 m
Data from the previous 72 hours. | See also: Recent months at Macquarie Island
Date/Time
EDT
Temp
°C
App
Temp
°C
Dew
Point
°C
Rel
Hum
%
Delta-T
°C
Wind Press
QNH
hPa
Press
MSL
hPa
Rain since
9am
mm
Dir  Spd
km/h
Gust
km/h
Spd
kts
Gust
kts
23/06:30pm 7.6 -3.9 6.2 91 0.6 WNW 56 67 30 36 1000.4 - 1.4
23/06:00pm 7.6 -3.5 6.2 91 0.6 WNW 54 69 29 37 1000.8 1001.1 1.0
23/05:30pm 7.5 -2.5 6.3 92 0.5 WNW 48 57 26 31 1000.9 - 1.0
23/05:00pm 7.5 -2.1 6.4 93 0.5 WNW 46 57 25 31 1001.3 - 0.8
23/04:30pm 7.5 -2.1 6.1 91 0.6 WNW 46 56 25 30 1002.0 - 0.4
23/04:10pm 7.5 -1.8 6.0 90 0.7 WNW 44 63 24 34 1002.0 - 0.2
23/04:00pm 7.6 -1.7 6.1 90 0.7 WNW 44 59 24 32 1002.3 - 0.2
23/03:30pm 7.8 -1.9 5.9 88 0.9 WNW 46 57 25 31 1002.6 - 0.0
23/03:00pm 7.9 -1.2 6.0 88 0.9 WNW 43 57 23 31 1003.0 1003.3 0.0
23/02:30pm 7.7 -2.0 6.0 89 0.8 WNW 46 57 25 31 1003.4 - 0.0
23/02:00pm 7.6 -1.7 5.9 89 0.8 WNW 44 57 24 31 1003.3 - 0.0
23/01:30pm 7.8 -3.8 5.8 87 0.9 W 56 67 30 36 1003.8 - 0.0
23/01:00pm 7.8 -3.4 5.8 87 0.9 W 54 63 29 34 1003.9 - 0.0
23/12:30pm 7.7 -3.5 5.8 88 0.9 W 54 65 29 35 1003.8 - 0.0
23/12:16pm 7.7 -2.8 5.8 88 0.9 W 50 69 27 37 1004.0 - 0.0
23/12:00pm 7.7 -3.5 6.0 89 0.8 W 54 67 29 36 1004.0 1004.3 0.0
23/11:30am 7.6 -3.6 5.7 88 0.9 W 54 67 29 36 1004.2 - 0.0
23/11:00am 7.7 -4.2 5.3 85 1.1 W 57 72 31 39 1004.4 - 0.0
23/10:30am 7.7 -4.5 5.7 87 0.9 W 59 70 32 38 1003.9 - 0.0
23/10:00am 7.3 -5.3 5.4 88 0.8 W 61 76 33 41 1004.0 - 0.0
23/09:52am 7.4 -4.4 5.7 89 0.8 W 57 76 31 41 1004.1 - 0.0
23/09:29am 7.3 -4.9 5.6 89 0.8 W 59 72 32 39 1004.0 - 0.0
23/09:00am 7.4 -5.5 6.0 91 0.6 W 63 80 34 43 1003.7 1004.0 2.6
23/08:31am 7.5 -4.3 5.6 88 0.8 W 57 76 31 41 1003.3 - 2.4
23/08:30am 7.6 -4.6 5.7 88 0.9 W 59 76 32 41 1003.3 - 2.4
23/08:01am 7.5 -5.5 5.5 87 0.9 W 63 83 34 45 1003.1 - 2.4
23/08:00am 7.5 -5.5 5.6 88 0.8 W 63 78 34 42 1003.2 - 2.4
23/07:49am 7.5 -5.8 5.6 88 0.8 W 65 83 35 45 1003.2 - 2.4
23/07:30am 7.6 -5.3 5.9 89 0.8 W 63 76 34 41 1003.0 - 2.4
23/07:06am 7.5 -4.2 6.0 90 0.7 W 57 80 31 43 1002.6 - 2.4
23/07:00am 7.5 -4.2 6.0 90 0.7 W 57 69 31 37 1002.6 - 2.4
23/06:37am 7.5 -4.2 6.0 90 0.7 W 57 76 31 41 1002.4 - 2.4
23/06:30am 7.5 -4.6 6.0 90 0.7 W 59 76 32 41 1002.5 - 2.4
23/06:00am 7.5 -3.7 6.0 90 0.7 WNW 54 72 29 39 1002.3 1002.6 2.4
23/05:30am 7.5 -4.6 6.0 90 0.7 WNW 59 78 32 42 1002.2 - 2.4
23/05:15am 7.6 -4.9 6.1 90 0.7 WNW 61 80 33 43 1001.8 - 2.2
23/05:00am 7.6 -4.5 6.1 90 0.7 WNW 59 72 32 39 1001.9 - 2.2
23/04:38am 7.5 -4.6 6.0 90 0.7 WNW 59 78 32 42 1002.1 - 2.2
23/04:30am 7.4 -4.4 5.9 90 0.7 WNW 57 74 31 40 1002.1 - 2.2
23/04:10am 7.5 -4.7 5.5 87 0.9 WNW 59 82 32 44 1002.1 - 2.0
23/04:00am 7.6 -4.7 5.2 85 1.1 WNW 59 72 32 39 1002.1 - 2.0
23/03:38am 7.5 -5.6 5.1 85 1.1 WNW 63 82 34 44 1002.3 - 2.0
23/03:30am 7.5 -5.2 5.3 86 1.0 WNW 61 76 33 41 1002.6 - 2.0
23/03:00am 7.3 -5.4 5.1 86 1.0 WNW 61 80 33 43 1003.0 1003.3 2.0
23/02:56am 7.3 -5.4 5.1 86 1.0 WNW 61 80 33 43 1003.1 - 2.0
23/02:30am 7.3 -5.0 5.3 87 0.9 WNW 59 72 32 39 1003.3 - 2.0
23/02:00am 6.9 -5.0 5.1 88 0.8 WNW 57 70 31 38 1003.5 - 2.0
23/01:33am 7.0 -5.0 5.0 87 0.9 WNW 57 76 31 41 1004.1 - 2.0
23/01:30am 7.0 -5.4 4.8 86 1.0 WNW 59 76 32 41 1004.1 - 2.0
23/01:04am 7.1 -3.9 4.8 85 1.0 WNW 52 72 28 39 1004.2 - 2.0
23/01:00am 7.1 -4.0 4.6 84 1.1 WNW 52 69 28 37 1004.3 - 2.0
23/12:41am 7.0 -5.0 4.5 84 1.1 WNW 57 76 31 41 1004.5 - 2.0
23/12:30am 6.8 -5.2 4.6 86 1.0 WNW 57 69 31 37 1004.6 - 2.0
23/12:06am 6.9 -4.9 4.7 86 1.0 WNW 56 74 30 40 1005.1 - 2.0
23/12:00am 6.8 -5.2 4.5 85 1.0 WNW 57 74 31 40 1005.0 1005.3 2.0
 
Date/Time
EDT
Temp
°C
App
Temp
°C
Dew
Point
°C
Rel
Hum
%
Delta-T
°C
Wind Press
QNH
hPa
Press
MSL
hPa
Rain since
9am
mm
Dir  Spd
km/h
Gust
km/h
Spd
kts
Gust
kts
22/11:30pm 6.6 -4.8 4.8 88 0.8 WNW 54 72 29 39 1005.0 - 2.0
22/11:06pm 6.4 -3.9 4.7 89 0.7 WNW 48 69 26 37 1005.3 - 2.0
22/11:00pm 6.4 -5.0 4.7 89 0.7 WNW 54 70 29 38 1005.4 - 2.0
22/10:36pm 6.5 -4.9 4.7 88 0.8 W 54 72 29 39 1005.7 - 1.8
22/10:30pm 6.3 -5.8 4.3 87 0.9 W 57 72 31 39 1005.8 - 1.8
22/10:00pm 5.9 -6.7 3.6 85 1.0 W 59 72 32 39 1006.2 - 1.8
22/09:52pm 6.2 -5.0 3.9 85 1.0 WNW 52 72 28 39 1006.2 - 1.8
22/09:30pm 6.0 -4.9 3.7 85 1.0 WNW 50 67 27 36 1006.4 - 1.6
22/09:18pm 6.2 -3.9 3.5 83 1.1 WNW 46 72 25 39 1006.3 - 1.6
22/09:10pm 6.1 -2.7 3.8 85 1.0 W 39 48 21 26 1006.6 - 1.6
22/09:00pm 5.8 -6.9 3.1 83 1.1 W 59 76 32 41 1006.7 1007.0 1.6
22/08:26pm 5.6 -4.9 3.4 86 0.9 W 48 67 26 36 1006.7 - 1.6
22/08:00pm 6.0 -4.5 3.5 84 1.0 WNW 48 61 26 33 1006.3 - 1.0
22/07:30pm 5.8 -4.4 3.3 84 1.0 W 46 61 25 33 1006.6 - 1.0
22/07:14pm 6.0 -4.7 2.6 79 1.4 W 48 67 26 36 1006.9 - 1.0
22/07:00pm 5.9 -4.4 2.5 79 1.4 WNW 46 61 25 33 1006.6 - 0.8
22/06:30pm 5.0 -6.9 2.2 82 1.1 W 54 70 29 38 1006.6 - 0.8
22/06:16pm 5.1 -4.8 2.8 85 0.9 W 44 63 24 34 1006.8 - 0.8
22/06:00pm 5.3 -4.6 2.8 84 1.0 W 44 56 24 30 1006.7 1007.0 0.6
22/05:42pm 5.6 -5.1 2.4 80 1.3 W 48 67 26 36 1006.8 - 0.4
22/05:30pm 5.1 -4.7 2.3 82 1.1 W 43 56 23 30 1006.9 - 0.4
22/05:15pm 5.5 -4.9 1.8 77 1.5 W 46 65 25 35 1007.0 - 0.4
22/05:00pm 5.7 -5.1 1.8 76 1.6 W 48 61 26 33 1006.9 - 0.4
22/04:30pm 6.0 -4.4 1.9 75 1.7 W 46 54 25 29 1007.1 - 0.4
22/04:00pm 5.3 -5.6 1.2 75 1.6 W 48 61 26 33 1007.2 - 0.4
22/03:30pm 5.9 -5.3 -0.4 64 2.4 W 48 67 26 36 1007.3 - 0.4
22/03:26pm 6.0 -5.1 -0.1 65 2.3 W 48 67 26 36 1007.4 - 0.4
22/03:00pm 6.1 -5.4 0.2 66 2.3 W 50 63 27 34 1007.4 1007.7 0.4
22/02:30pm 5.8 -5.2 1.0 71 1.9 W 48 67 26 36 1007.5 - 0.4
22/02:00pm 4.7 -7.2 1.9 82 1.1 W 54 72 29 39 1007.6 - 0.4
22/01:33pm 4.3 -6.7 0.6 77 1.4 W 48 67 26 36 1007.8 - 0.2
22/01:30pm 4.8 -6.7 0.2 72 1.8 W 50 67 27 36 1007.6 - 0.2
22/01:00pm 5.8 -5.1 -0.9 62 2.5 W 46 61 25 33 1007.3 - 0.0
22/12:30pm 4.9 -6.1 -1.8 62 2.4 W 46 85 25 46 1007.4 - 0.0
22/12:24pm 4.9 -6.1 -2.0 61 2.5 W 46 85 25 46 1007.5 - 0.0
22/12:00pm 4.8 -5.7 -1.4 64 2.3 W 44 67 24 36 1007.4 1007.7 0.0
22/11:30am 4.9 -6.7 -1.1 65 2.2 W 50 72 27 39 1007.3 - 0.0
22/11:00am 5.1 -4.7 -2.7 57 2.8 W 39 63 21 34 1007.1 - 0.0
22/10:30am 5.1 -3.5 -2.9 56 2.8 W 33 65 18 35 1006.7 - 0.0
22/10:20am 5.2 -1.8 -3.1 55 2.9 WSW 24 43 13 23 1006.7 - 0.0
22/10:09am 5.2 -5.3 -2.6 57 2.8 W 43 63 23 34 1006.4 - 0.0
22/10:01am 4.8 -2.7 -1.4 64 2.3 WSW 28 69 15 37 1006.2 - 0.0
22/10:00am 4.8 -2.4 -1.8 62 2.4 WSW 26 43 14 23 1006.5 - 0.0
22/09:59am 4.8 -2.3 -1.0 66 2.1 WSW 26 39 14 21 1006.3 - 0.0
22/09:30am 5.0 -6.7 -1.7 62 2.4 W 50 76 27 41 1005.8 - 0.0
22/09:00am 4.8 -4.6 0.0 71 1.8 W 39 69 21 37 1005.4 1005.7 1.4
22/08:49am 4.9 -4.0 0.9 75 1.6 W 37 76 20 41 1005.2 - 1.4
22/08:43am 4.8 -2.4 0.4 73 1.7 WSW 28 52 15 28 1005.1 - 1.4
22/08:28am 3.5 -6.3 -0.5 75 1.5 SW 41 57 22 31 1005.2 - 1.4
22/08:21am 5.2 -2.3 1.0 74 1.6 W 30 82 16 44 1005.0 - 1.2
22/08:04am 4.2 -3.1 0.2 75 1.5 SW 28 48 15 26 1004.7 - 1.2
22/08:00am 4.4 -3.8 0.4 75 1.5 WSW 33 44 18 24 1004.5 - 1.2
22/07:54am 5.0 -5.2 0.8 74 1.6 W 44 74 24 40 1004.0 - 1.2
22/07:30am 5.0 -3.1 0.0 70 1.9 W 32 52 17 28 1003.9 - 1.2
22/07:08am 5.1 -2.9 0.5 72 1.8 W 32 70 17 38 1003.5 - 1.2
22/07:03am 5.3 -1.8 1.1 74 1.6 WSW 28 50 15 27 1003.2 - 1.2
22/07:00am 5.3 -0.4 0.7 72 1.8 W 20 33 11 18 1003.2 - 1.2
22/06:30am 5.6 -4.7 -0.7 64 2.4 W 43 74 23 40 1002.3 - 1.2
22/06:27am 5.5 -4.7 -0.3 66 2.2 W 43 74 23 40 1002.1 - 1.2
22/06:03am 5.5 -2.5 0.5 70 1.9 WSW 32 59 17 32 1001.8 - 1.2
22/06:00am 5.4 -4.7 0.2 69 2.0 W 43 69 23 37 1001.6 1001.9 1.2
22/05:32am 4.8 -6.6 0.6 74 1.6 W 50 69 27 37 1001.2 - 1.2
22/05:30am 4.9 -6.4 0.9 75 1.6 W 50 65 27 35 1001.4 - 1.2
22/05:00am 5.2 -6.7 -0.2 68 2.0 W 52 82 28 44 1000.7 - 1.2
22/04:30am 5.5 -7.1 0.3 69 2.0 W 56 74 30 40 1000.1 - 1.2
22/04:00am 5.0 -6.4 0.8 74 1.6 W 50 74 27 40 999.9 - 1.2
22/03:30am 5.0 -7.2 0.6 73 1.7 W 54 93 29 50 999.6 - 1.2
22/03:00am 4.5 -8.6 0.3 74 1.6 W 59 78 32 42 999.3 999.6 1.2
22/02:54am 4.7 -8.3 1.0 77 1.4 W 59 78 32 42 999.3 - 1.2
22/02:51am 4.8 -8.5 1.6 80 1.3 W 61 78 33 42 998.9 - 1.2
22/02:45am 4.3 -4.4 -0.5 71 1.8 W 35 54 19 29 999.3 - 1.2
22/02:42am 4.6 -8.9 0.6 75 1.5 W 61 83 33 45 998.9 - 1.2
22/02:40am 4.5 -4.0 1.2 79 1.3 W 35 76 19 41 998.7 - 1.2
22/02:31am 3.9 -4.1 0.4 78 1.3 W 32 50 17 27 999.1 - 1.2
22/02:30am 3.9 -4.3 0.4 78 1.3 W 33 50 18 27 999.0 - 1.2
22/02:29am 3.9 -4.1 0.2 77 1.4 W 32 50 17 27 999.1 - 1.2
22/02:27am 4.0 -4.1 0.0 75 1.5 W 32 48 17 26 999.1 - 1.2
22/02:00am 5.3 -7.4 -0.7 65 2.2 W 56 76 30 41 998.4 - 1.0
22/01:41am 4.8 -6.0 -0.6 68 2.0 W 46 70 25 38 998.1 - 1.0
22/01:30am 4.4 -2.4 0.6 76 1.5 WSW 26 50 14 27 998.1 - 1.0
22/01:24am 4.4 -2.8 0.4 75 1.5 WSW 28 50 15 27 998.1 - 1.0
22/01:00am 5.0 -6.9 0.0 70 1.9 W 52 83 28 45 997.5 - 1.0
22/12:42am 4.1 -7.7 0.4 77 1.4 W 52 70 28 38 997.3 - 1.0
22/12:30am 4.2 -7.8 1.4 82 1.1 W 54 67 29 36 997.1 - 1.0
22/12:00am 4.1 -9.4 0.8 79 1.3 W 61 102 33 55 997.2 997.5 0.8
 
Date/Time
EDT
Temp
°C
App
Temp
°C
Dew
Point
°C
Rel
Hum
%
Delta-T
°C
Wind Press
QNH
hPa
Press
MSL
hPa
Rain since
9am
mm
Dir  Spd
km/h
Gust
km/h
Spd
kts
Gust
kts
21/11:49pm 5.2 -7.3 1.7 78 1.4 W 57 85 31 46 997.0 - 0.6
21/11:30pm 5.0 -7.5 1.7 79 1.3 W 57 74 31 40 996.7 - 0.6
21/11:00pm 4.0 -9.0 1.0 81 1.2 W 59 80 32 43 996.7 - 0.6
21/10:53pm 5.5 -7.8 2.0 78 1.4 W 61 80 33 43 996.6 - 0.2
21/10:30pm 5.9 -6.4 2.0 76 1.6 W 56 69 30 37 996.6 - 0.2
21/10:15pm 5.7 -6.3 1.6 75 1.6 W 54 74 29 40 996.4 - 0.2
21/10:12pm 5.9 -5.2 2.4 78 1.4 WNW 50 67 27 36 996.4 - 0.2
21/10:00pm 5.9 -9.1 2.0 76 1.6 WNW 70 82 38 44 996.2 - 0.2
21/09:36pm 5.7 -5.9 2.0 77 1.5 W 52 70 28 38 996.7 - 0.2
21/09:30pm 5.8 -6.2 1.3 73 1.8 WNW 54 70 29 38 996.7 - 0.2
21/09:00pm 4.9 -6.3 2.1 82 1.1 W 50 76 27 41 997.0 997.3 0.2
21/08:37pm 5.9 -5.7 2.0 76 1.6 WNW 52 72 28 39 997.0 - 0.2
21/08:30pm 5.7 -5.4 2.2 78 1.4 WNW 50 67 27 36 997.3 - 0.2
21/08:12pm 6.1 -5.8 2.0 75 1.7 WNW 54 74 29 40 997.4 - 0.2
21/08:00pm 6.3 -5.9 2.6 77 1.5 WNW 56 69 30 37 997.0 - 0.2
21/07:30pm 6.0 -5.9 2.1 76 1.6 WNW 54 65 29 35 997.5 - 0.2
21/07:00pm 5.6 -4.3 2.6 81 1.2 WNW 44 56 24 30 998.0 - 0.2
21/06:39pm 5.0 -5.7 2.7 85 0.9 WNW 48 67 26 36 998.2 - 0.2
21/06:30pm 4.7 -7.4 1.2 78 1.4 WNW 54 70 29 38 998.2 - 0.2
21/06:23pm 5.1 -5.3 1.8 79 1.3 W 46 70 25 38 998.3 - 0.0
21/06:06pm 4.9 -5.0 1.9 81 1.2 W 43 50 23 27 998.7 - 0.0
21/06:00pm 6.3 -4.0 2.8 78 1.5 WNW 46 57 25 31 998.3 998.6 0.0
21/05:30pm 6.0 -4.4 2.1 76 1.6 WNW 46 59 25 32 998.8 - 0.0
21/05:00pm 5.8 -4.1 1.9 76 1.6 WNW 43 54 23 29 999.2 - 0.0
21/04:36pm 6.4 -3.5 2.7 77 1.5 WNW 44 72 24 39 999.3 - 0.0
21/04:30pm 6.4 -2.6 2.7 77 1.5 WNW 39 50 21 27 999.3 - 0.0
21/04:00pm 6.8 -3.5 0.5 64 2.5 W 44 56 24 30 999.5 - 0.0
21/03:30pm 7.4 -3.2 1.0 64 2.6 W 46 57 25 31 999.9 - 0.0
21/03:00pm 7.5 -3.6 0.3 60 2.9 W 48 56 26 30 1000.2 1000.5 0.0
21/02:30pm 7.2 -2.9 1.7 68 2.2 W 44 54 24 29 1000.5 - 0.0
21/02:00pm 7.1 -4.2 1.4 67 2.3 W 50 61 27 33 1000.7 - 0.0
21/01:30pm 8.0 -2.5 1.6 64 2.6 W 46 61 25 33 1000.6 - 0.0
21/01:00pm 7.9 -3.3 1.7 65 2.5 W 50 59 27 32 1000.7 - 0.0
21/12:30pm 6.4 -4.9 0.9 68 2.2 W 50 65 27 35 1000.9 - 0.0
21/12:23pm 6.1 -5.2 1.4 72 1.9 W 50 69 27 37 1000.9 - 0.0
21/12:00pm 7.3 -3.4 2.8 73 1.9 WNW 48 57 26 31 1000.9 1001.2 0.0
21/11:30am 7.3 -3.5 2.2 70 2.1 WNW 48 59 26 32 1001.1 - 0.0
21/11:00am 7.6 -1.9 1.9 67 2.3 W 41 56 22 30 1001.3 - 0.0
21/10:30am 7.5 -3.3 2.2 69 2.2 W 48 59 26 32 1001.5 - 0.0
21/10:00am 6.9 -3.9 2.2 72 1.9 W 48 57 26 31 1001.7 - 0.0
21/09:30am 6.6 -3.4 2.1 73 1.8 W 44 59 24 32 1001.6 - 0.0
21/09:00am 6.4 -4.3 2.3 75 1.7 W 48 63 26 34 1001.6 1001.9 1.0
21/08:30am 6.6 -4.2 1.7 71 2.0 W 48 61 26 33 1001.8 - 1.0
21/08:00am 6.5 -3.9 2.2 74 1.8 W 46 56 25 30 1001.8 - 1.0
21/07:30am 6.4 -4.0 2.3 75 1.7 W 46 59 25 32 1001.6 - 0.8
21/07:00am 6.3 -2.9 3.5 82 1.2 W 41 52 22 28 1001.6 - 0.8
21/06:30am 6.6 -3.2 3.6 81 1.3 W 44 56 24 30 1001.4 - 0.8
21/06:00am 6.7 -3.3 4.5 86 1.0 W 46 56 25 30 1001.4 1001.7 0.8
21/05:30am 6.7 -3.3 4.4 85 1.0 W 46 61 25 33 1001.9 - 0.8
21/05:23am 7.2 -3.1 4.9 85 1.0 WNW 48 67 26 36 1001.6 - 0.8
21/05:00am 7.3 -2.6 4.9 85 1.1 WNW 46 57 25 31 1001.6 - 0.8
21/04:30am 7.3 -2.9 5.3 87 0.9 WNW 48 61 26 33 1001.9 - 0.8
21/04:00am 7.4 -3.6 5.2 86 1.0 WNW 52 67 28 36 1001.9 - 0.8
21/03:50am 7.5 -3.5 5.1 85 1.1 WNW 52 70 28 38 1002.0 - 0.8
21/03:30am 7.4 -3.2 5.2 86 1.0 WNW 50 65 27 35 1002.2 - 0.8
21/03:00am 7.6 -3.3 5.6 87 0.9 WNW 52 63 28 34 1002.2 1002.5 0.8
21/02:30am 7.5 -3.4 5.5 87 0.9 WNW 52 63 28 34 1002.4 - 0.8
21/02:00am 7.5 -3.8 5.5 87 0.9 WNW 54 69 29 37 1002.5 - 0.8
21/01:30am 7.5 -4.1 5.8 89 0.8 WNW 56 67 30 36 1002.7 - 0.8
21/01:00am 7.4 -3.4 6.2 92 0.5 WNW 52 61 28 33 1002.8 - 0.8
21/12:30am 7.3 -3.5 5.9 91 0.6 WNW 52 63 28 34 1003.0 - 0.8
21/12:00am 7.5 -3.4 5.6 88 0.9 WNW 52 63 28 34 1003.1 1003.4 0.6
 
Date/Time
EDT
Temp
°C
App
Temp
°C
Dew
Point
°C
Rel
Hum
%
Delta-T
°C
Wind Press
QNH
hPa
Press
MSL
hPa
Rain since
9am
mm
Dir  Spd
km/h
Gust
km/h
Spd
kts
Gust
kts
20/11:38pm 7.4 -2.8 5.2 86 1.0 WNW 48 67 26 36 1003.3 - 0.6
20/11:30pm 7.3 -3.6 5.4 88 0.8 WNW 52 61 28 33 1003.4 - 0.6
20/11:00pm 7.3 -2.8 5.6 89 0.8 WNW 48 61 26 33 1003.5 - 0.6
20/10:30pm 7.4 -2.7 5.5 88 0.8 WNW 48 57 26 31 1003.6 - 0.6
20/10:00pm 7.2 -3.7 5.3 88 0.8 WNW 52 63 28 34 1003.6 - 0.6
20/09:30pm 7.0 -2.4 5.3 89 0.8 WNW 44 57 24 31 1003.7 - 0.6
20/09:00pm 7.0 -3.3 4.8 86 1.0 WNW 48 61 26 33 1003.8 1004.1 0.6
20/08:36pm 6.8 -3.1 4.6 86 1.0 WNW 46 65 25 35 1003.8 - 0.6
20/08:30pm 6.8 -2.8 4.6 86 1.0 WNW 44 54 24 29 1003.9 - 0.6
20/08:00pm 6.3 -3.7 4.3 87 0.9 WNW 46 59 25 32 1003.9 - 0.6
20/07:46pm 6.3 -3.7 4.3 87 0.9 WNW 46 65 25 35 1003.8 - 0.6
20/07:30pm 6.8 -2.9 3.9 82 1.2 WNW 44 56 24 30 1003.8 - 0.4
20/07:09pm 6.6 -3.0 3.6 81 1.3 WNW 43 61 23 33 1003.9 - 0.4

Other Formats:

Comma delimited format used in spreadsheet applications
http://www.bom.gov.au/fwo/IDT60801/IDT60801.94998.axf

JavaScript Object Notation format (JSON) in row-major order
http://www.bom.gov.au/fwo/IDT60801/IDT60801.94998.json